Time;durP1;ratioP1;P1;durP2;ratioP2;P2;SDS_P1;SDS_P2;PMS_P1;PMS_P2;Temp;Humidity;BMP_temperature;BMP_pressure;BME280_temperature;BME280_humidity;BME280_pressure;Samples;Min_cycle;Max_cycle;Signal;HPM_P1;HPM_P2
2021/05/21 00:02:05;;;;;;;1.65;0.82;;;;;;;;;;5018315;28;20092;-44
2021/05/21 00:04:30;;;;;;;2.70;0.88;;;;;;;;;;5018737;28;20040;-45
2021/05/21 00:06:56;;;;;;;9.35;0.80;;;;;;;;;;5025850;28;20518;-45
2021/05/21 00:09:21;;;;;;;4.97;1.33;;;;;;;;;;5022333;28;20077;-45
2021/05/21 00:11:46;;;;;;;1.00;0.70;;;;;;;;;;5022718;28;20029;-46
2021/05/21 00:14:12;;;;;;;5.30;2.95;;;;;;;;;;5012294;28;20662;-47
2021/05/21 00:16:37;;;;;;;3.65;1.77;;;;;;;;;;5018363;28;20033;-45
2021/05/21 00:19:02;;;;;;;9.48;2.08;;;;;;;;;;5018929;28;20044;-45
2021/05/21 00:21:28;;;;;;;7.40;2.20;;;;;;;;;;5018303;28;20038;-47
2021/05/21 00:23:53;;;;;;;7.32;2.58;;;;;;;;;;5012485;28;20399;-48
2021/05/21 00:26:18;;;;;;;2.80;1.05;;;;;;;;;;5015484;28;20485;-46
2021/05/21 00:28:44;;;;;;;4.40;2.53;;;;;;;;;;5017178;28;20028;-48
2021/05/21 00:31:09;;;;;;;6.10;2.58;;;;;;;;;;5015028;28;20038;-46
2021/05/21 00:33:34;;;;;;;5.65;2.50;;;;;;;;;;5021572;28;20514;-45
2021/05/21 00:36:00;;;;;;;14.23;4.32;;;;;;;;;;5017660;28;20033;-45
2021/05/21 00:38:25;;;;;;;7.72;2.78;;;;;;;;;;5018603;28;20033;-46
2021/05/21 00:40:50;;;;;;;5.43;2.53;;;;;;;;;;5017591;28;20121;-46
2021/05/21 00:43:16;;;;;;;5.75;2.25;;;;;;;;;;5014452;28;20034;-44
2021/05/21 00:45:41;;;;;;;7.70;3.25;;;;;;;;;;5019618;28;20495;-47
2021/05/21 00:48:06;;;;;;;5.93;2.63;;;;;;;;;;5022598;28;20030;-45
2021/05/21 00:50:32;;;;;;;4.05;2.15;;;;;;;;;;5016810;28;20059;-48
2021/05/21 00:52:58;;;;;;;7.20;2.00;;;;;;;;;;5019570;28;20030;-47
2021/05/21 00:55:24;;;;;;;1.95;1.30;;;;;;;;;;5019650;28;20498;-45
2021/05/21 00:57:49;;;;;;;1.92;0.85;;;;;;;;;;5014250;28;20060;-47
2021/05/21 01:00:14;;;;;;;1.85;1.02;;;;;;;;;;5016945;28;20116;-46
2021/05/21 01:02:40;;;;;;;1.90;0.55;;;;;;;;;;5017940;28;20130;-45
2021/05/21 01:05:06;;;;;;;1.27;0.77;;;;;;;;;;5015684;28;20061;-46
2021/05/21 01:07:31;;;;;;;0.82;0.75;;;;;;;;;;5020455;28;20074;-45
2021/05/21 01:09:57;;;;;;;4.50;0.73;;;;;;;;;;5019353;28;20517;-47
2021/05/21 01:12:22;;;;;;;3.17;0.80;;;;;;;;;;5013644;28;20036;-46
2021/05/21 01:14:51;;;;;;;2.78;0.73;;;;;;;;;;5020130;28;20021;-46
2021/05/21 01:17:17;;;;;;;1.00;0.60;;;;;;;;;;5017512;28;20120;-44
2021/05/21 01:19:42;;;;;;;6.50;1.35;;;;;;;;;;5018299;28;20614;-46
2021/05/21 01:22:07;;;;;;;7.68;0.73;;;;;;;;;;5017490;28;20029;-44
2021/05/21 01:24:33;;;;;;;2.08;0.68;;;;;;;;;;5020744;28;20029;-44
2021/05/21 01:26:59;;;;;;;1.80;1.33;;;;;;;;;;5021655;28;20085;-44
2021/05/21 01:29:24;;;;;;;10.80;2.42;;;;;;;;;;5024506;28;20109;-46
2021/05/21 01:31:49;;;;;;;3.92;2.13;;;;;;;;;;5018487;28;20184;-48
2021/05/21 01:34:14;;;;;;;10.10;2.78;;;;;;;;;;5023068;28;20026;-46
2021/05/21 01:36:40;;;;;;;3.78;2.15;;;;;;;;;;5019202;28;20533;-45
2021/05/21 01:39:09;;;;;;;4.90;2.40;;;;;;;;;;5022526;28;20041;-43
2021/05/21 01:41:35;;;;;;;7.50;1.65;;;;;;;;;;5024925;28;20034;-45
2021/05/21 01:44:01;;;;;;;1.40;0.93;;;;;;;;;;5021210;28;20512;-44
2021/05/21 01:46:27;;;;;;;2.75;0.90;;;;;;;;;;5021761;28;20036;-46
2021/05/21 01:48:52;;;;;;;3.20;1.27;;;;;;;;;;5019988;28;20116;-46
2021/05/21 01:51:17;;;;;;;1.10;0.63;;;;;;;;;;5018682;28;20127;-45
2021/05/21 01:53:43;;;;;;;3.65;0.88;;;;;;;;;;5020182;28;20057;-47
2021/05/21 01:56:08;;;;;;;10.88;1.00;;;;;;;;;;5020322;28;20526;-45
2021/05/21 01:58:34;;;;;;;1.83;0.60;;;;;;;;;;5020959;28;20037;-45
2021/05/21 02:00:59;;;;;;;1.52;0.50;;;;;;;;;;5019527;28;20490;-45
2021/05/21 02:03:27;;;;;;;3.08;0.70;;;;;;;;;;5019453;28;20053;-44
2021/05/21 02:05:52;;;;;;;2.67;0.98;;;;;;;;;;5019958;28;20036;-44
2021/05/21 02:08:17;;;;;;;6.50;2.80;;;;;;;;;;5022132;28;20108;-45
2021/05/21 02:10:43;;;;;;;8.45;2.88;;;;;;;;;;5024455;28;20026;-44
2021/05/21 02:13:09;;;;;;;9.02;4.07;;;;;;;;;;5023462;28;20032;-46
2021/05/21 02:15:34;;;;;;;12.23;2.83;;;;;;;;;;5020253;28;20128;-45
2021/05/21 02:18:00;;;;;;;6.68;2.88;;;;;;;;;;5025420;28;20498;-46
2021/05/21 02:20:25;;;;;;;6.20;3.00;;;;;;;;;;5022386;28;20021;-45
2021/05/21 02:22:50;;;;;;;15.30;4.05;;;;;;;;;;5020197;28;20529;-47
2021/05/21 02:25:16;;;;;;;7.07;2.50;;;;;;;;;;5019987;28;20112;-46
2021/05/21 02:27:41;;;;;;;7.53;2.70;;;;;;;;;;5019743;28;20045;-44
2021/05/21 02:30:09;;;;;;;3.17;1.65;;;;;;;;;;5020767;28;20030;-44
2021/05/21 02:32:34;;;;;;;4.13;1.88;;;;;;;;;;5022761;28;20109;-44
2021/05/21 02:35:00;;;;;;;2.63;1.58;;;;;;;;;;5024057;28;20203;-46
2021/05/21 02:37:25;;;;;;;6.53;2.50;;;;;;;;;;5019797;28;20034;-43
2021/05/21 02:39:50;;;;;;;11.02;2.53;;;;;;;;;;5018480;28;20041;-44
2021/05/21 02:42:15;;;;;;;20.25;4.05;;;;;;;;;;5016454;28;20040;-45
2021/05/21 02:44:41;;;;;;;6.97;1.75;;;;;;;;;;5020575;28;20034;-46
2021/05/21 02:47:06;;;;;;;7.30;3.60;;;;;;;;;;5019742;28;20117;-44
2021/05/21 02:49:34;;;;;;;4.97;3.30;;;;;;;;;;5020671;28;20084;-44
2021/05/21 02:51:59;;;;;;;8.48;3.03;;;;;;;;;;5021372;28;20083;-44
2021/05/21 02:54:25;;;;;;;7.43;4.50;;;;;;;;;;5018943;28;20042;-43
2021/05/21 02:56:50;;;;;;;4.75;3.80;;;;;;;;;;5021161;28;20398;-45
2021/05/21 02:59:15;;;;;;;14.48;5.05;;;;;;;;;;5023171;28;20490;-46
2021/05/21 03:01:41;;;;;;;8.38;3.67;;;;;;;;;;5016216;28;20507;-45
2021/05/21 03:04:06;;;;;;;12.80;5.10;;;;;;;;;;5019577;28;20070;-45
2021/05/21 03:06:32;;;;;;;9.80;5.28;;;;;;;;;;5022242;28;20028;-47
2021/05/21 03:08:58;;;;;;;7.65;5.18;;;;;;;;;;5018779;28;20055;-44
2021/05/21 03:11:23;;;;;;;12.30;5.03;;;;;;;;;;5018993;28;20504;-45
2021/05/21 03:13:48;;;;;;;8.73;4.90;;;;;;;;;;5017634;28;20036;-45
2021/05/21 03:16:14;;;;;;;13.43;5.97;;;;;;;;;;5018998;28;20037;-46
2021/05/21 03:18:39;;;;;;;20.60;4.80;;;;;;;;;;5017174;28;20120;-47
2021/05/21 03:21:05;;;;;;;11.13;5.40;;;;;;;;;;5020109;28;20113;-45
2021/05/21 03:23:30;;;;;;;6.10;4.95;;;;;;;;;;5021776;28;20044;-44
2021/05/21 03:25:55;;;;;;;7.05;4.68;;;;;;;;;;5020332;28;20509;-45
2021/05/21 03:28:21;;;;;;;10.82;6.60;;;;;;;;;;5020171;28;20041;-45
2021/05/21 03:30:47;;;;;;;12.93;6.38;;;;;;;;;;5018346;28;20480;-45
2021/05/21 03:33:12;;;;;;;16.25;4.80;;;;;;;;;;5019759;28;20041;-48
2021/05/21 03:35:37;;;;;;;5.28;2.83;;;;;;;;;;5016885;28;20022;-45
2021/05/21 03:38:03;;;;;;;5.22;2.85;;;;;;;;;;5018788;28;20022;-47
2021/05/21 03:40:30;;;;;;;4.40;3.17;;;;;;;;;;5021744;28;20124;-47
2021/05/21 03:42:55;;;;;;;9.45;3.40;;;;;;;;;;5020488;28;20503;-45
2021/05/21 03:45:21;;;;;;;9.18;3.95;;;;;;;;;;5019379;28;20072;-48
2021/05/21 03:47:46;;;;;;;6.90;3.63;;;;;;;;;;5020956;28;20040;-43
2021/05/21 03:50:12;;;;;;;6.65;4.20;;;;;;;;;;5018188;28;20115;-47
2021/05/21 03:52:37;;;;;;;5.82;4.65;;;;;;;;;;5019476;28;20021;-45
2021/05/21 03:55:04;;;;;;;9.38;5.38;;;;;;;;;;5017740;28;20056;-44
2021/05/21 03:57:29;;;;;;;9.20;5.57;;;;;;;;;;5018351;28;20257;-45
2021/05/21 03:59:54;;;;;;;8.85;4.30;;;;;;;;;;5019049;28;20091;-44
2021/05/21 04:02:20;;;;;;;8.07;5.85;;;;;;;;;;5018373;28;20033;-45
2021/05/21 04:04:45;;;;;;;17.50;6.63;;;;;;;;;;5018365;28;20030;-45
2021/05/21 04:07:10;;;;;;;9.00;3.97;;;;;;;;;;5018328;28;20037;-48
2021/05/21 04:09:36;;;;;;;6.10;2.75;;;;;;;;;;5033523;28;20069;-50
2021/05/21 04:12:01;;;;;;;4.47;3.28;;;;;;;;;;5020169;28;20041;-52
2021/05/21 04:14:26;;;;;;;10.13;3.28;;;;;;;;;;5019849;28;20178;-47
2021/05/21 04:16:52;;;;;;;6.30;4.25;;;;;;;;;;5016729;28;20034;-44
2021/05/21 04:19:17;;;;;;;10.30;4.00;;;;;;;;;;5017883;28;20029;-45
2021/05/21 04:21:42;;;;;;;7.97;4.57;;;;;;;;;;5016940;28;20409;-44
2021/05/21 04:24:08;;;;;;;6.38;3.58;;;;;;;;;;5017629;28;20376;-45
2021/05/21 04:26:33;;;;;;;12.60;4.65;;;;;;;;;;5019074;28;20131;-46
2021/05/21 04:28:59;;;;;;;7.10;3.90;;;;;;;;;;5014157;28;20100;-44
2021/05/21 04:31:24;;;;;;;7.07;3.22;;;;;;;;;;5020988;28;20129;-46
2021/05/21 04:33:50;;;;;;;10.90;3.33;;;;;;;;;;5021690;28;20033;-46
2021/05/21 04:36:16;;;;;;;5.78;3.28;;;;;;;;;;5019672;28;20486;-46
2021/05/21 04:38:41;;;;;;;11.25;4.05;;;;;;;;;;5018727;28;20044;-46
2021/05/21 04:41:06;;;;;;;5.68;2.22;;;;;;;;;;5019282;28;20033;-45
2021/05/21 04:43:32;;;;;;;7.07;3.83;;;;;;;;;;5017034;28;20119;-46
2021/05/21 04:45:57;;;;;;;5.15;3.05;;;;;;;;;;5016942;28;20041;-46
2021/05/21 04:48:23;;;;;;;7.53;3.53;;;;;;;;;;5016757;28;20033;-45
2021/05/21 04:50:50;;;;;;;4.35;2.60;;;;;;;;;;5019663;28;20030;-45
2021/05/21 04:53:15;;;;;;;6.25;2.35;;;;;;;;;;5019816;28;20025;-45
2021/05/21 04:55:41;;;;;;;8.60;2.25;;;;;;;;;;5015752;28;20037;-44
2021/05/21 04:58:07;;;;;;;2.45;1.30;;;;;;;;;;5017884;28;20479;-47
2021/05/21 05:00:32;;;;;;;4.55;2.15;;;;;;;;;;5018569;28;20549;-47
2021/05/21 05:03:02;;;;;;;8.38;3.10;;;;;;;;;;5018848;28;20042;-47
2021/05/21 05:05:28;;;;;;;8.67;2.77;;;;;;;;;;5015332;28;20034;-45
2021/05/21 05:07:53;;;;;;;4.93;4.07;;;;;;;;;;5018167;28;20266;-44
2021/05/21 05:10:18;;;;;;;3.08;1.40;;;;;;;;;;5015654;28;20030;-48
2021/05/21 05:12:44;;;;;;;11.43;2.85;;;;;;;;;;5017820;28;20049;-44
2021/05/21 05:15:09;;;;;;;8.25;3.20;;;;;;;;;;5019020;28;20533;-44
2021/05/21 05:17:34;;;;;;;4.47;2.63;;;;;;;;;;5017790;28;20087;-46
2021/05/21 05:20:00;;;;;;;6.95;2.05;;;;;;;;;;5015887;28;20041;-44
2021/05/21 05:22:25;;;;;;;6.32;2.38;;;;;;;;;;5017962;28;20508;-43
2021/05/21 05:24:50;;;;;;;9.05;2.95;;;;;;;;;;5018898;28;20030;-43
2021/05/21 05:27:16;;;;;;;5.95;2.47;;;;;;;;;;5017830;28;20041;-44
2021/05/21 05:29:44;;;;;;;3.95;1.77;;;;;;;;;;5015943;28;20143;-45
2021/05/21 05:32:09;;;;;;;6.22;2.13;;;;;;;;;;5015952;28;20029;-44
2021/05/21 05:34:35;;;;;;;2.97;1.42;;;;;;;;;;5018621;28;20399;-46
2021/05/21 05:37:00;;;;;;;9.55;2.20;;;;;;;;;;5018634;28;20506;-46
2021/05/21 05:39:26;;;;;;;5.70;1.58;;;;;;;;;;5016522;28;20093;-45
2021/05/21 05:41:51;;;;;;;10.15;1.77;;;;;;;;;;5014595;28;20708;-45
2021/05/21 05:44:17;;;;;;;18.75;8.52;;;;;;;;;;5016426;28;20048;-45
2021/05/21 05:46:42;;;;;;;3.22;2.40;;;;;;;;;;5014911;28;20034;-44
2021/05/21 05:49:08;;;;;;;6.85;1.65;;;;;;;;;;5019650;28;20040;-47
2021/05/21 05:51:33;;;;;;;5.07;1.42;;;;;;;;;;5020649;28;20038;-44
2021/05/21 05:53:58;;;;;;;4.13;1.20;;;;;;;;;;5018616;28;20418;-46
2021/05/21 05:56:24;;;;;;;2.63;1.77;;;;;;;;;;5017869;28;20506;-48
2021/05/21 05:58:49;;;;;;;8.02;2.00;;;;;;;;;;5021142;28;20406;-49
2021/05/21 06:01:14;;;;;;;5.18;1.90;;;;;;;;;;5018270;28;20080;-48
2021/05/21 06:03:40;;;;;;;3.30;1.77;;;;;;;;;;5020342;28;20487;-45
2021/05/21 06:06:05;;;;;;;3.65;1.52;;;;;;;;;;5018585;28;20026;-46
2021/05/21 06:08:30;;;;;;;2.55;1.10;;;;;;;;;;5016800;28;20026;-46
2021/05/21 06:10:57;;;;;;;2.92;1.10;;;;;;;;;;5016048;28;20025;-44
2021/05/21 06:13:23;;;;;;;4.60;2.55;;;;;;;;;;5023799;28;20037;-44
2021/05/21 06:15:49;;;;;;;3.00;0.68;;;;;;;;;;5021390;28;20542;-47
2021/05/21 06:18:14;;;;;;;4.07;1.10;;;;;;;;;;5017938;28;20041;-46
2021/05/21 06:20:39;;;;;;;6.28;2.13;;;;;;;;;;5020729;28;20050;-45
2021/05/21 06:23:05;;;;;;;5.38;4.57;;;;;;;;;;5017129;28;20042;-45
2021/05/21 06:28:25;;;;;;;2.10;0.95;;;;;;;;;;5025353;28;20084;-47
2021/05/21 06:30:51;;;;;;;8.57;2.30;;;;;;;;;;5020159;28;20034;-47
2021/05/21 06:33:17;;;;;;;7.57;1.52;;;;;;;;;;5022140;28;20044;-45
2021/05/21 06:35:42;;;;;;;6.05;0.98;;;;;;;;;;5020144;28;20034;-46
2021/05/21 06:38:08;;;;;;;3.03;1.75;;;;;;;;;;5017042;28;20037;-45
2021/05/21 06:40:33;;;;;;;10.80;1.10;;;;;;;;;;5017853;28;20030;-49
2021/05/21 06:42:58;;;;;;;2.35;1.35;;;;;;;;;;5024096;28;20034;-46
2021/05/21 06:45:24;;;;;;;2.88;2.10;;;;;;;;;;5018285;28;20030;-43
2021/05/21 06:47:49;;;;;;;3.22;1.38;;;;;;;;;;5022849;28;20037;-45
2021/05/21 06:50:14;;;;;;;3.13;1.58;;;;;;;;;;5023153;28;20081;-47
2021/05/21 06:52:40;;;;;;;7.40;2.08;;;;;;;;;;5019894;28;20034;-45
2021/05/21 06:55:06;;;;;;;10.88;1.73;;;;;;;;;;5019384;28;20033;-45
2021/05/21 06:57:31;;;;;;;5.53;2.20;;;;;;;;;;5021342;28;20070;-44
2021/05/21 06:59:59;;;;;;;11.35;2.45;;;;;;;;;;5019756;28;20033;-44
2021/05/21 07:02:29;;;;;;;4.88;1.73;;;;;;;;;;5022634;28;20045;-44
2021/05/21 07:04:54;;;;;;;18.10;1.85;;;;;;;;;;5018857;28;20037;-43
2021/05/21 07:07:20;;;;;;;7.50;1.98;;;;;;;;;;5021792;28;20091;-43
2021/05/21 07:09:45;;;;;;;1.40;1.02;;;;;;;;;;5021523;28;20387;-45
2021/05/21 07:12:10;;;;;;;2.92;1.50;;;;;;;;;;5021923;28;20032;-44
2021/05/21 07:14:36;;;;;;;2.35;1.10;;;;;;;;;;5023012;28;20055;-44
2021/05/21 07:17:01;;;;;;;1.92;1.17;;;;;;;;;;5020321;28;20037;-43
2021/05/21 07:19:26;;;;;;;4.95;0.93;;;;;;;;;;5021836;28;20025;-45
2021/05/21 07:21:52;;;;;;;3.03;1.33;;;;;;;;;;5020360;28;20017;-45
2021/05/21 07:24:17;;;;;;;6.40;1.45;;;;;;;;;;5014106;28;20037;-45
2021/05/21 07:26:42;;;;;;;4.22;1.20;;;;;;;;;;5016669;28;20042;-46
2021/05/21 07:29:08;;;;;;;3.70;1.08;;;;;;;;;;5013159;28;20526;-44
2021/05/21 07:31:33;;;;;;;8.35;2.00;;;;;;;;;;5015015;28;20033;-46
2021/05/21 07:33:59;;;;;;;2.90;1.50;;;;;;;;;;5015446;28;20137;-47
2021/05/21 07:36:28;;;;;;;4.85;1.00;;;;;;;;;;5018199;28;20044;-50
2021/05/21 07:38:54;;;;;;;6.80;1.05;;;;;;;;;;5015240;28;20129;-51
2021/05/21 07:41:24;;;;;;;7.47;1.75;;;;;;;;;;5018298;28;20044;-51
2021/05/21 07:43:50;;;;;;;3.55;1.25;;;;;;;;;;5017865;28;20043;-53
2021/05/21 07:46:15;;;;;;;3.95;0.77;;;;;;;;;;5014544;28;20037;-48
2021/05/21 07:48:41;;;;;;;7.40;1.40;;;;;;;;;;5017342;28;20032;-50
2021/05/21 07:51:07;;;;;;;2.65;1.73;;;;;;;;;;5021044;28;20041;-53
2021/05/21 07:53:33;;;;;;;3.92;1.25;;;;;;;;;;5020319;28;20033;-47
2021/05/21 07:55:59;;;;;;;2.92;1.38;;;;;;;;;;5022183;28;20040;-49
2021/05/21 07:58:25;;;;;;;1.23;0.73;;;;;;;;;;5021210;28;20049;-52
2021/05/21 08:00:52;;;;;;;2.60;1.60;;;;;;;;;;5017072;28;20132;-49
2021/05/21 08:03:17;;;;;;;0.55;0.40;;;;;;;;;;5016025;28;20030;-53
2021/05/21 08:05:43;;;;;;;2.17;0.80;;;;;;;;;;5019374;28;20033;-51
2021/05/21 08:08:09;;;;;;;4.13;1.42;;;;;;;;;;5018674;28;20411;-53
2021/05/21 08:10:34;;;;;;;0.98;0.77;;;;;;;;;;5017098;28;20048;-53
2021/05/21 08:13:03;;;;;;;3.92;1.25;;;;;;;;;;5016971;28;20033;-59
2021/05/21 08:15:28;;;;;;;6.57;2.17;;;;;;;;;;5017902;28;20030;-58
2021/05/21 08:17:54;;;;;;;9.63;1.35;;;;;;;;;;5015316;28;20156;-53
2021/05/21 08:20:19;;;;;;;5.15;2.05;;;;;;;;;;5016331;28;20531;-49
2021/05/21 08:22:47;;;;;;;5.75;1.92;;;;;;;;;;5016697;28;20115;-52
2021/05/21 08:25:12;;;;;;;5.88;1.67;;;;;;;;;;5016945;28;20058;-50
2021/05/21 08:27:38;;;;;;;4.10;1.50;;;;;;;;;;5014802;28;20053;-53
2021/05/21 08:30:04;;;;;;;3.83;1.00;;;;;;;;;;5016771;28;20030;-53
2021/05/21 08:32:29;;;;;;;2.35;0.93;;;;;;;;;;5015334;28;20411;-40
2021/05/21 08:34:55;;;;;;;10.40;1.83;;;;;;;;;;5016964;28;20053;-41
2021/05/21 08:37:21;;;;;;;2.70;1.45;;;;;;;;;;5021788;28;20048;-42
2021/05/21 08:39:47;;;;;;;5.32;2.20;;;;;;;;;;5017427;28;20034;-50
2021/05/21 08:42:12;;;;;;;10.00;2.30;;;;;;;;;;5016684;28;20565;-49
2021/05/21 08:44:44;;;;;;;1.40;0.55;;;;;;;;;;5017176;28;20045;-50
2021/05/21 08:47:09;;;;;;;9.48;1.80;;;;;;;;;;5015064;28;20514;-51
2021/05/21 08:49:34;;;;;;;17.67;1.75;;;;;;;;;;5016328;28;20033;-50
2021/05/21 08:52:03;;;;;;;3.95;1.90;;;;;;;;;;5013642;28;20041;-49
2021/05/21 08:54:34;;;;;;;7.93;1.42;;;;;;;;;;5013205;28;20088;-52
2021/05/21 08:56:59;;;;;;;;;;;;;;;;;;5021743;28;20036;-50
2021/05/21 08:59:24;;;;;;;3.17;1.48;;;;;;;;;;5020226;28;19929;-53
2021/05/21 09:01:53;;;;;;;1.67;0.80;;;;;;;;;;5018766;28;20064;-53
2021/05/21 09:04:19;;;;;;;1.45;0.88;;;;;;;;;;5016902;28;20112;-51
2021/05/21 09:06:44;;;;;;;4.00;1.15;;;;;;;;;;5018238;28;20116;-51
2021/05/21 09:09:11;;;;;;;2.55;1.63;;;;;;;;;;5017913;28;20038;-52
2021/05/21 09:11:40;;;;;;;4.65;1.25;;;;;;;;;;5015752;28;20042;-54
2021/05/21 09:14:14;;;;;;;4.18;1.40;;;;;;;;;;5019033;28;20068;-48
2021/05/21 09:16:40;;;;;;;8.82;1.67;;;;;;;;;;5017500;28;20090;-53
2021/05/21 09:19:15;;;;;;;7.03;1.10;;;;;;;;;;5014658;28;20038;-53
2021/05/21 09:21:58;;;;;;;10.10;2.95;;;;;;;;;;5013469;28;20034;-51
2021/05/21 09:24:25;;;;;;;4.18;0.98;;;;;;;;;;5010963;28;20411;-50
2021/05/21 09:26:51;;;;;;;5.43;1.45;;;;;;;;;;5016152;28;20482;-51
2021/05/21 09:29:31;;;;;;;3.45;0.93;;;;;;;;;;5014959;28;20057;-51
2021/05/21 09:31:56;;;;;;;4.05;1.60;;;;;;;;;;5017811;28;20096;-50
2021/05/21 09:34:32;;;;;;;5.03;1.90;;;;;;;;;;5017280;28;20025;-50
2021/05/21 09:36:58;;;;;;;18.15;2.33;;;;;;;;;;5016137;28;20069;-52
2021/05/21 09:39:24;;;;;;;3.83;1.30;;;;;;;;;;5015023;28;20072;-49
2021/05/21 09:41:50;;;;;;;4.30;1.65;;;;;;;;;;5017649;28;20533;-53
2021/05/21 09:44:19;;;;;;;2.53;1.38;;;;;;;;;;5016331;28;20064;-52
2021/05/21 09:46:49;;;;;;;8.82;1.42;;;;;;;;;;5011676;28;20037;-51
2021/05/21 09:49:27;;;;;;;5.22;2.67;;;;;;;;;;5016964;28;20080;-50
2021/05/21 09:51:56;;;;;;;8.90;2.40;;;;;;;;;;5014808;28;20410;-49
2021/05/21 09:54:22;;;;;;;8.25;2.45;;;;;;;;;;5020120;28;20152;-48
2021/05/21 09:57:04;;;;;;;8.90;1.95;;;;;;;;;;5019173;28;20056;-50
2021/05/21 09:59:42;;;;;;;8.43;1.88;;;;;;;;;;5018983;28;20037;-52
2021/05/21 10:02:37;;;;;;;9.07;1.83;;;;;;;;;;5019733;28;20037;-48
2021/05/21 10:05:04;;;;;;;10.23;0.85;;;;;;;;;;5012259;28;20052;-52
2021/05/21 10:07:29;;;;;;;7.05;2.10;;;;;;;;;;5016738;28;20769;-47
2021/05/21 10:09:54;;;;;;;8.00;2.60;;;;;;;;;;5019489;28;20030;-49
2021/05/21 10:12:20;;;;;;;3.85;1.05;;;;;;;;;;5019040;28;20038;-51
2021/05/21 10:14:49;;;;;;;1.23;0.52;;;;;;;;;;5018714;28;20037;-49
2021/05/21 10:17:17;;;;;;;2.00;0.90;;;;;;;;;;5015633;28;20121;-49
2021/05/21 10:19:43;;;;;;;2.47;0.95;;;;;;;;;;5020942;28;20029;-49
2021/05/21 10:22:10;;;;;;;3.40;1.85;;;;;;;;;;5015611;28;20042;-51
2021/05/21 10:24:37;;;;;;;12.13;2.90;;;;;;;;;;5013220;28;20041;-49
2021/05/21 10:27:08;;;;;;;9.00;1.63;;;;;;;;;;5016728;28;20097;-50
2021/05/21 10:29:34;;;;;;;13.68;2.05;;;;;;;;;;5018860;28;20072;-56
2021/05/21 10:32:11;;;;;;;10.20;1.63;;;;;;;;;;5021074;28;20029;-46
2021/05/21 10:34:41;;;;;;;5.75;1.35;;;;;;;;;;5019271;28;20033;-52
2021/05/21 10:37:39;;;;;;;7.82;3.10;;;;;;;;;;5016573;28;20045;-49
2021/05/21 10:40:07;;;;;;;16.67;3.30;;;;;;;;;;4991636;28;20037;-48
2021/05/21 10:42:41;;;;;;;4.30;2.83;;;;;;;;;;5018593;28;20498;-53
2021/05/21 10:45:07;;;;;;;3.67;1.52;;;;;;;;;;5016126;28;20033;-51
2021/05/21 10:47:37;;;;;;;12.55;1.88;;;;;;;;;;5018981;28;20125;-42
2021/05/21 10:50:02;;;;;;;3.05;0.77;;;;;;;;;;5018021;28;20033;-50
2021/05/21 10:52:46;;;;;;;12.50;1.85;;;;;;;;;;5017135;28;20475;-50
2021/05/21 10:55:12;;;;;;;8.43;1.98;;;;;;;;;;5015729;28;20042;-47
2021/05/21 10:57:38;;;;;;;8.00;2.10;;;;;;;;;;5016787;28;20064;-52
2021/05/21 11:00:04;;;;;;;12.23;1.65;;;;;;;;;;5017905;28;20040;-45
2021/05/21 11:02:45;;;;;;;6.65;1.75;;;;;;;;;;5018067;28;20040;-47
2021/05/21 11:05:20;;;;;;;4.78;1.95;;;;;;;;;;5018366;28;20115;-51
2021/05/21 11:07:45;;;;;;;5.00;2.10;;;;;;;;;;5013378;28;20037;-50
2021/05/21 11:10:29;;;;;;;14.07;2.85;;;;;;;;;;5016588;28;20033;-51
2021/05/21 11:12:58;;;;;;;3.38;0.90;;;;;;;;;;5018389;28;20053;-50
2021/05/21 11:15:33;;;;;;;2.70;1.83;;;;;;;;;;5020109;28;20041;-46
2021/05/21 11:18:16;;;;;;;5.28;2.15;;;;;;;;;;5012777;28;20553;-50
2021/05/21 11:20:57;;;;;;;2.83;1.35;;;;;;;;;;5016847;28;20513;-46
2021/05/21 11:23:23;;;;;;;3.05;1.20;;;;;;;;;;5014641;28;20104;-49
2021/05/21 11:26:18;;;;;;;3.85;1.33;;;;;;;;;;5015059;28;20060;-45
2021/05/21 11:28:46;;;;;;;9.45;1.83;;;;;;;;;;5011664;28;20553;-45
2021/05/21 11:31:13;;;;;;;8.18;2.58;;;;;;;;;;5013828;28;20467;-50
2021/05/21 11:33:38;;;;;;;8.98;1.70;;;;;;;;;;5014244;28;20121;-50
2021/05/21 11:36:04;;;;;;;9.07;1.83;;;;;;;;;;5016343;28;20120;-48
2021/05/21 11:38:30;;;;;;;4.88;1.48;;;;;;;;;;5017570;28;20494;-46
2021/05/21 11:40:55;;;;;;;2.33;1.48;;;;;;;;;;5020049;28;20045;-45
2021/05/21 11:43:21;;;;;;;5.72;2.60;;;;;;;;;;5016227;28;20034;-41
2021/05/21 11:45:48;;;;;;;10.05;2.42;;;;;;;;;;5016925;28;20083;-43
2021/05/21 11:48:13;;;;;;;2.70;1.17;;;;;;;;;;5018073;28;20039;-42
2021/05/21 11:50:38;;;;;;;6.60;1.77;;;;;;;;;;5017267;28;20029;-45
2021/05/21 11:53:13;;;;;;;6.07;1.98;;;;;;;;;;5015735;28;20029;-49
2021/05/21 11:55:42;;;;;;;5.80;3.35;;;;;;;;;;5016731;28;20105;-49
2021/05/21 11:58:18;;;;;;;6.15;2.22;;;;;;;;;;5017643;28;20121;-49
2021/05/21 12:00:44;;;;;;;5.75;2.38;;;;;;;;;;5014873;28;20045;-48
2021/05/21 12:03:09;;;;;;;7.00;3.58;;;;;;;;;;5013067;28;20046;-50
2021/05/21 12:05:35;;;;;;;4.03;1.73;;;;;;;;;;5015714;28;20037;-47
2021/05/21 12:08:00;;;;;;;7.05;3.15;;;;;;;;;;5029570;28;20041;-46
2021/05/21 12:10:26;;;;;;;5.45;1.95;;;;;;;;;;5014527;28;20424;-51
2021/05/21 12:12:51;;;;;;;8.50;3.78;;;;;;;;;;5018453;28;20509;-47
2021/05/21 12:15:17;;;;;;;6.88;1.58;;;;;;;;;;5016334;28;20075;-47
2021/05/21 12:17:47;;;;;;;3.08;1.00;;;;;;;;;;5017216;28;20418;-46
2021/05/21 12:20:13;;;;;;;4.03;1.83;;;;;;;;;;5016346;28;20487;-46
2021/05/21 12:22:55;;;;;;;10.25;2.65;;;;;;;;;;5019859;28;20064;-52
2021/05/21 12:25:21;;;;;;;27.35;3.25;;;;;;;;;;5017715;28;20561;-49
2021/05/21 12:27:46;;;;;;;4.55;1.60;;;;;;;;;;5018551;28;20037;-50
2021/05/21 12:30:12;;;;;;;8.13;1.23;;;;;;;;;;5019232;28;20087;-47
2021/05/21 12:32:38;;;;;;;4.72;1.40;;;;;;;;;;5015431;28;20395;-46
2021/05/21 12:35:07;;;;;;;2.53;1.23;;;;;;;;;;5019628;28;20041;-50
2021/05/21 12:37:32;;;;;;;10.63;1.63;;;;;;;;;;5020520;28;20128;-51
2021/05/21 12:40:00;;;;;;;4.70;1.25;;;;;;;;;;5020150;28;20487;-48
2021/05/21 12:42:25;;;;;;;6.25;1.05;;;;;;;;;;5020148;28;20029;-47
2021/05/21 12:44:51;;;;;;;1.88;1.00;;;;;;;;;;5018299;28;20037;-46
2021/05/21 12:47:18;;;;;;;1.77;0.68;;;;;;;;;;5019391;28;20029;-50
2021/05/21 12:49:47;;;;;;;4.80;1.33;;;;;;;;;;5017087;28;20026;-46
2021/05/21 12:52:13;;;;;;;3.95;1.63;;;;;;;;;;5017405;28;20053;-48
2021/05/21 12:54:45;;;;;;;5.75;1.25;;;;;;;;;;5016918;28;20060;-51
2021/05/21 12:57:13;;;;;;;1.90;1.20;;;;;;;;;;5019358;28;20225;-44
2021/05/21 12:59:39;;;;;;;2.03;1.00;;;;;;;;;;5017436;28;20105;-48
2021/05/21 13:02:15;;;;;;;6.70;2.28;;;;;;;;;;5015923;28;20079;-45
2021/05/21 13:04:54;;;;;;;1.33;1.10;;;;;;;;;;5021709;28;20033;-43
2021/05/21 13:07:19;;;;;;;7.20;1.80;;;;;;;;;;5018295;28;20040;-47
2021/05/21 13:09:45;;;;;;;2.03;1.17;;;;;;;;;;5016807;28;20029;-49
2021/05/21 13:12:10;;;;;;;2.25;0.95;;;;;;;;;;5015885;28;20118;-48
2021/05/21 13:14:43;;;;;;;9.30;1.88;;;;;;;;;;5020412;28;20554;-46
2021/05/21 13:17:08;;;;;;;6.38;1.10;;;;;;;;;;5021187;28;20037;-49
2021/05/21 13:19:35;;;;;;;7.18;1.08;;;;;;;;;;5017412;28;20412;-48
2021/05/21 13:22:19;;;;;;;19.63;3.25;;;;;;;;;;5015040;28;20124;-44
2021/05/21 13:24:49;;;;;;;19.00;2.53;;;;;;;;;;5018543;28;20037;-49
2021/05/21 13:27:19;;;;;;;1.63;1.07;;;;;;;;;;5018194;28;20041;-46
2021/05/21 13:29:44;;;;;;;8.02;4.28;;;;;;;;;;5014051;28;20036;-44
2021/05/21 13:32:10;;;;;;;4.97;1.98;;;;;;;;;;5011612;28;20029;-45
2021/05/21 13:34:35;;;;;;;4.32;1.35;;;;;;;;;;5013915;28;20040;-48
2021/05/21 13:37:00;;;;;;;7.30;1.77;;;;;;;;;;5016271;28;20517;-46
2021/05/21 13:39:26;;;;;;;5.47;1.10;;;;;;;;;;5015761;28;20029;-45
2021/05/21 13:41:51;;;;;;;15.55;2.35;;;;;;;;;;5015908;28;20069;-45
2021/05/21 13:44:16;;;;;;;10.95;1.83;;;;;;;;;;5015817;28;20120;-47
2021/05/21 13:46:42;;;;;;;6.63;2.60;;;;;;;;;;5012968;28;20045;-44
2021/05/21 13:49:07;;;;;;;5.93;1.40;;;;;;;;;;5014541;28;20446;-46
2021/05/21 13:51:32;;;;;;;10.85;1.88;;;;;;;;;;5013093;28;20045;-46
2021/05/21 13:53:58;;;;;;;12.57;1.02;;;;;;;;;;5015253;28;20045;-47
2021/05/21 13:56:23;;;;;;;5.13;2.13;;;;;;;;;;5015795;28;20033;-44
2021/05/21 13:58:48;;;;;;;2.42;1.27;;;;;;;;;;5018203;28;20029;-43
2021/05/21 14:01:14;;;;;;;2.05;1.02;;;;;;;;;;5013790;28;20406;-47
2021/05/21 14:03:40;;;;;;;3.45;1.23;;;;;;;;;;5015025;28;20038;-44
2021/05/21 14:06:06;;;;;;;10.63;1.08;;;;;;;;;;5014439;28;20039;-45
2021/05/21 14:08:31;;;;;;;1.63;0.90;;;;;;;;;;5017511;28;20038;-46
2021/05/21 14:10:57;;;;;;;3.17;1.85;;;;;;;;;;5015419;28;20104;-45
2021/05/21 14:13:23;;;;;;;1.75;0.95;;;;;;;;;;5015399;28;20037;-44
2021/05/21 14:15:48;;;;;;;9.32;1.98;;;;;;;;;;5013236;28;20444;-48
2021/05/21 14:18:13;;;;;;;13.23;2.05;;;;;;;;;;5014834;28;20499;-48
2021/05/21 14:20:39;;;;;;;9.88;1.63;;;;;;;;;;5015247;28;20030;-52
2021/05/21 14:23:05;;;;;;;41.55;8.80;;;;;;;;;;5017479;28;20034;-50
2021/05/21 14:25:33;;;;;;;5.68;1.70;;;;;;;;;;5015161;28;20058;-46
2021/05/21 14:27:59;;;;;;;1.92;0.82;;;;;;;;;;5015896;28;20446;-46
2021/05/21 14:30:24;;;;;;;4.20;1.48;;;;;;;;;;5014913;28;20030;-52
2021/05/21 14:32:52;;;;;;;6.28;1.35;;;;;;;;;;5013153;28;20084;-55
2021/05/21 14:35:17;;;;;;;2.38;0.70;;;;;;;;;;5018216;28;20563;-56
2021/05/21 14:37:44;;;;;;;3.35;0.55;;;;;;;;;;5018326;28;20042;-54
2021/05/21 14:40:10;;;;;;;12.95;2.03;;;;;;;;;;5017075;28;20117;-49
2021/05/21 14:42:35;;;;;;;1.65;1.02;;;;;;;;;;5020247;28;20569;-45